createdAt,value
2019-04-16T00:00:03.540Z,30.17
2019-04-16T00:00:35.424Z,30.31
2019-04-16T00:01:07.493Z,30.25
2019-04-16T00:01:45.782Z,30.48
2019-04-16T00:02:18.491Z,30.25
2019-04-16T00:02:48.486Z,30.37
2019-04-16T00:03:12.200Z,30.37
2019-04-16T00:03:38.480Z,30.37
2019-04-16T00:04:04.757Z,30.39
2019-04-16T00:04:47.462Z,30.35
2019-04-16T00:05:13.793Z,30.47
2019-04-16T00:05:49.361Z,30.44
2019-04-16T00:06:21.616Z,30.51
2019-04-16T00:07:04.345Z,30.29
2019-04-16T00:07:39.668Z,30.36
2019-04-16T00:08:26.555Z,30.46
2019-04-16T00:08:39.585Z,30.51
2019-04-16T00:09:09.253Z,30.52
2019-04-16T00:09:51.902Z,30.59
2019-04-16T00:10:30.160Z,30.68
2019-04-16T00:10:56.422Z,30.71
2019-04-16T00:11:28.471Z,30.53
2019-04-16T00:11:57.355Z,30.52
2019-04-16T00:12:23.611Z,30.63
2019-04-16T00:12:49.861Z,30.79
2019-04-16T00:13:19.057Z,30.72
2019-04-16T00:13:45.355Z,30.72
2019-04-16T00:14:11.603Z,30.88
2019-04-16T00:14:37.884Z,30.69
2019-04-16T00:15:02.593Z,30.83
2019-04-16T00:15:27.301Z,30.71
2019-04-16T00:15:51.919Z,30.74
2019-04-16T00:16:16.555Z,30.90
2019-04-16T00:16:41.341Z,30.85
2019-04-16T00:17:07.505Z,30.75
2019-04-16T00:17:32.142Z,30.65
2019-04-16T00:17:56.759Z,30.74
2019-04-16T00:18:21.373Z,30.86
2019-04-16T00:18:56.759Z,30.51
2019-04-16T00:19:12.347Z,30.54
2019-04-16T00:19:36.972Z,30.69
2019-04-16T00:20:05.676Z,30.64
2019-04-16T00:20:28.047Z,30.69
2019-04-16T00:20:54.357Z,30.66
2019-04-16T00:21:38.479Z,30.56
2019-04-16T00:22:16.883Z,30.58
2019-04-16T00:22:45.951Z,30.50
2019-04-16T00:23:28.518Z,30.57
2019-04-16T00:24:07.053Z,30.65
2019-04-16T00:24:33.314Z,30.37
2019-04-16T00:24:58.015Z,30.42
2019-04-16T00:25:22.660Z,30.53
2019-04-16T00:25:48.117Z,30.60
2019-04-16T00:26:12.823Z,30.55
2019-04-16T00:26:37.439Z,30.50
2019-04-16T00:27:02.099Z,30.52
2019-04-16T00:27:28.760Z,30.56
2019-04-16T00:27:53.435Z,30.65
2019-04-16T00:28:18.127Z,30.62
2019-04-16T00:28:42.766Z,30.58
2019-04-16T00:29:07.543Z,30.62
2019-04-16T00:29:33.000Z,30.62
2019-04-16T00:29:58.551Z,30.52
2019-04-16T00:30:23.365Z,30.63
2019-04-16T00:30:48.208Z,30.48
2019-04-16T00:31:12.854Z,30.42
2019-04-16T00:31:37.772Z,30.46
2019-04-16T00:32:02.509Z,30.52
2019-04-16T00:32:28.947Z,30.54
2019-04-16T00:32:53.633Z,30.64
2019-04-16T00:33:18.302Z,30.59
2019-04-16T00:33:43.594Z,30.42
2019-04-16T00:34:08.295Z,30.44
2019-04-16T00:34:32.950Z,30.45
2019-04-16T00:34:57.571Z,30.39
2019-04-16T00:35:22.221Z,30.47
2019-04-16T00:35:47.244Z,30.45
2019-04-16T00:36:11.925Z,30.56
2019-04-16T00:36:36.593Z,30.46
2019-04-16T00:37:01.239Z,30.50
2019-04-16T00:37:25.922Z,30.46
2019-04-16T00:37:51.659Z,30.28
2019-04-16T00:38:17.073Z,30.44
2019-04-16T00:38:41.773Z,30.32
2019-04-16T00:39:06.866Z,30.50
2019-04-16T00:39:31.475Z,30.36
2019-04-16T00:39:56.982Z,30.56
2019-04-16T00:40:26.395Z,30.36
2019-04-16T00:40:48.472Z,30.47
2019-04-16T00:41:13.224Z,30.49
2019-04-16T00:41:37.869Z,30.51
2019-04-16T00:42:02.466Z,30.31
2019-04-16T00:42:27.086Z,30.47
2019-04-16T00:42:51.693Z,30.38
2019-04-16T00:43:16.303Z,30.22
2019-04-16T00:43:43.930Z,30.33
2019-04-16T00:44:07.264Z,30.26
2019-04-16T00:44:31.950Z,30.46
2019-04-16T00:44:56.609Z,30.40
2019-04-16T00:45:21.237Z,30.39
2019-04-16T00:45:45.852Z,30.41
2019-04-16T00:46:11.616Z,30.29
2019-04-16T00:46:36.794Z,30.53
2019-04-16T00:47:01.451Z,30.44
2019-04-16T00:47:26.129Z,30.47
2019-04-16T00:47:51.343Z,30.41
2019-04-16T00:48:16.819Z,30.49
2019-04-16T00:48:41.457Z,30.44
2019-04-16T00:49:06.127Z,30.30
2019-04-16T00:49:30.801Z,30.37
2019-04-16T00:50:17.148Z,30.23
2019-04-16T00:50:41.769Z,30.38
2019-04-16T00:51:06.406Z,30.49
2019-04-16T00:51:31.057Z,30.36
2019-04-16T00:51:55.979Z,30.32
2019-04-16T00:52:20.687Z,30.45
2019-04-16T00:52:45.272Z,30.52
2019-04-16T00:53:09.927Z,30.43
2019-04-16T00:53:36.384Z,30.36
2019-04-16T00:54:00.929Z,30.47
2019-04-16T00:54:25.588Z,30.35
2019-04-16T00:54:50.187Z,30.46
2019-04-16T00:55:14.845Z,30.42
2019-04-16T00:55:39.523Z,30.24
2019-04-16T00:56:04.159Z,30.40
2019-04-16T00:56:28.757Z,30.44
2019-04-16T00:56:53.379Z,30.42
2019-04-16T00:57:18.700Z,30.45
2019-04-16T00:57:43.382Z,30.38
2019-04-16T00:58:07.983Z,30.34
2019-04-16T00:58:32.594Z,30.51
2019-04-16T00:58:57.218Z,30.40
2019-04-16T00:59:24.106Z,30.45
2019-04-16T00:59:48.245Z,30.45
2019-04-16T01:00:13.636Z,30.48
2019-04-16T01:00:38.270Z,30.36
2019-04-16T01:01:02.943Z,30.45
2019-04-16T01:01:27.636Z,30.41
2019-04-16T01:01:52.279Z,30.51
2019-04-16T01:02:18.031Z,30.24
2019-04-16T01:02:42.702Z,30.50
2019-04-16T01:03:07.327Z,30.48
2019-04-16T01:03:31.956Z,30.37
2019-04-16T01:03:56.572Z,30.45
2019-04-16T01:04:21.269Z,30.38
2019-04-16T01:04:46.283Z,30.36
2019-04-16T01:05:10.931Z,30.22
2019-04-16T01:05:35.842Z,30.48
2019-04-16T01:06:00.535Z,30.47
2019-04-16T01:06:25.258Z,30.42
2019-04-16T01:06:49.875Z,30.35
2019-04-16T01:07:14.545Z,30.41
2019-04-16T01:07:39.172Z,30.27
2019-04-16T01:08:03.828Z,30.43
2019-04-16T01:08:28.428Z,30.41
2019-04-16T01:08:54.691Z,30.54
2019-04-16T01:09:19.423Z,30.47
2019-04-16T01:09:44.049Z,30.36
2019-04-16T01:10:08.671Z,30.51
2019-04-16T01:10:33.298Z,30.45
2019-04-16T01:10:58.013Z,30.62
2019-04-16T01:11:22.628Z,30.53
2019-04-16T01:11:48.839Z,30.57
2019-04-16T01:12:13.701Z,30.49
2019-04-16T01:12:38.300Z,30.48
2019-04-16T01:13:02.915Z,30.55
2019-04-16T01:13:27.536Z,30.57
2019-04-16T01:13:53.248Z,30.63
2019-04-16T01:14:18.567Z,30.54
2019-04-16T01:14:43.240Z,30.54
2019-04-16T01:15:07.931Z,30.67
2019-04-16T01:15:32.752Z,30.54
2019-04-16T01:15:57.593Z,30.57
2019-04-16T01:16:22.203Z,30.65
2019-04-16T01:16:46.844Z,30.54
2019-04-16T01:17:11.500Z,30.69
2019-04-16T01:17:36.714Z,30.48
2019-04-16T01:18:01.399Z,30.57
2019-04-16T01:18:26.016Z,30.50
2019-04-16T01:18:50.643Z,30.41
2019-04-16T01:19:15.260Z,30.54
2019-04-16T01:19:41.142Z,30.63
2019-04-16T01:20:11.612Z,30.68
2019-04-16T01:20:33.302Z,30.61
2019-04-16T01:20:58.091Z,30.75
2019-04-16T01:21:22.946Z,30.61
2019-04-16T01:21:47.593Z,30.72
2019-04-16T01:22:15.821Z,30.68
2019-04-16T01:22:39.366Z,30.65
2019-04-16T01:23:04.009Z,30.60
2019-04-16T01:23:28.874Z,30.64
2019-04-16T01:23:53.526Z,30.52
2019-04-16T01:24:20.315Z,30.78
2019-04-16T01:24:44.544Z,30.79
2019-04-16T01:25:09.157Z,30.79
2019-04-16T01:25:33.794Z,30.67
2019-04-16T01:25:58.415Z,30.74
2019-04-16T01:26:24.263Z,30.60
2019-04-16T01:26:49.392Z,30.82
2019-04-16T01:27:14.140Z,30.70
2019-04-16T01:27:43.170Z,30.87
2019-04-16T01:28:18.208Z,30.88
2019-04-16T01:28:44.580Z,30.72
2019-04-16T01:29:14.167Z,30.81
2019-04-16T01:29:38.805Z,30.86
2019-04-16T01:30:05.931Z,30.93
2019-04-16T01:30:37.388Z,30.84
2019-04-16T01:31:12.792Z,30.91
2019-04-16T01:31:39.328Z,30.79
2019-04-16T01:32:21.892Z,30.67
2019-04-16T01:33:04.598Z,30.89
2019-04-16T01:33:30.872Z,31.06
2019-04-16T01:34:06.030Z,30.97
2019-04-16T01:34:34.734Z,31.06
2019-04-16T01:35:19.109Z,31.09
2019-04-16T01:35:51.027Z,31.00
2019-04-16T01:36:22.947Z,30.97
2019-04-16T01:36:54.335Z,31.17
2019-04-16T01:37:26.721Z,31.15
2019-04-16T01:38:09.020Z,31.13
2019-04-16T01:38:38.386Z,31.17
2019-04-16T01:39:17.444Z,31.04
2019-04-16T01:39:35.592Z,31.19
2019-04-16T01:40:07.449Z,31.34
2019-04-16T01:40:33.681Z,31.27
2019-04-16T01:41:02.735Z,31.33
2019-04-16T01:41:27.379Z,31.28
2019-04-16T01:41:53.285Z,31.27
2019-04-16T01:42:18.090Z,31.13
2019-04-16T01:42:42.752Z,31.20
2019-04-16T01:43:07.354Z,31.34
2019-04-16T01:43:31.990Z,31.30
2019-04-16T01:43:57.136Z,31.21
2019-04-16T01:44:22.496Z,31.25
2019-04-16T01:44:47.084Z,31.30
2019-04-16T01:45:11.744Z,31.32
2019-04-16T01:45:36.364Z,31.23
2019-04-16T01:46:02.215Z,31.39
2019-04-16T01:46:27.266Z,31.36
2019-04-16T01:46:51.928Z,31.31
2019-04-16T01:47:16.572Z,31.26
2019-04-16T01:47:41.236Z,31.22
2019-04-16T01:48:08.051Z,31.27
2019-04-16T01:48:32.280Z,31.14
2019-04-16T01:48:56.888Z,31.27
2019-04-16T01:49:21.506Z,31.31
2019-04-16T01:49:46.119Z,31.27
2019-04-16T01:50:13.851Z,31.25
2019-04-16T01:50:37.068Z,31.26
2019-04-16T01:51:01.674Z,31.26
2019-04-16T01:51:26.332Z,31.14
2019-04-16T01:51:50.960Z,31.11
2019-04-16T01:52:18.705Z,31.19
2019-04-16T01:52:42.070Z,31.36
2019-04-16T01:53:06.760Z,31.17
2019-04-16T01:53:31.366Z,31.12
2019-04-16T01:53:56.045Z,30.87
2019-04-16T01:54:22.924Z,31.24
2019-04-16T01:54:47.029Z,31.15
2019-04-16T01:55:11.746Z,31.24
2019-04-16T01:55:36.360Z,31.32
2019-04-16T01:56:00.977Z,31.20
2019-04-16T01:56:28.826Z,31.22
2019-04-16T01:56:51.977Z,31.11
2019-04-16T01:57:16.590Z,31.27
2019-04-16T01:57:41.210Z,31.28
2019-04-16T01:58:05.822Z,31.09
2019-04-16T01:58:33.529Z,31.19
2019-04-16T01:58:56.790Z,31.24
2019-04-16T01:59:21.685Z,31.22
2019-04-16T01:59:46.323Z,31.01
2019-04-16T02:00:11.849Z,31.22
2019-04-16T02:00:39.056Z,31.15
2019-04-16T02:01:02.828Z,31.30
2019-04-16T02:01:27.562Z,31.16
2019-04-16T02:01:52.208Z,31.23
2019-04-16T02:02:16.811Z,31.26
2019-04-16T02:02:43.474Z,31.41
2019-04-16T02:03:09.148Z,31.22
2019-04-16T02:03:33.797Z,31.30
2019-04-16T02:03:58.407Z,31.24
2019-04-16T02:04:23.066Z,31.04
2019-04-16T02:04:48.443Z,31.26
2019-04-16T02:05:14.098Z,31.24
2019-04-16T02:05:38.788Z,31.24
2019-04-16T02:06:03.429Z,31.19
2019-04-16T02:06:28.092Z,31.19
2019-04-16T02:06:54.269Z,31.22
2019-04-16T02:07:19.057Z,31.36
2019-04-16T02:07:43.687Z,31.17
2019-04-16T02:08:08.326Z,31.37
2019-04-16T02:08:32.962Z,31.38
2019-04-16T02:09:01.708Z,31.28
2019-04-16T02:09:23.943Z,31.20
2019-04-16T02:09:48.591Z,31.27
2019-04-16T02:10:13.197Z,31.13
2019-04-16T02:10:38.368Z,31.24
2019-04-16T02:11:03.731Z,31.18
2019-04-16T02:11:28.345Z,31.36
2019-04-16T02:11:52.992Z,31.31
2019-04-16T02:12:17.610Z,31.39
2019-04-16T02:12:43.876Z,31.39
2019-04-16T02:13:08.831Z,31.41
2019-04-16T02:13:33.526Z,31.49
2019-04-16T02:13:58.126Z,31.39
2019-04-16T02:14:22.740Z,31.29
2019-04-16T02:14:50.285Z,31.46
2019-04-16T02:15:13.677Z,31.42
2019-04-16T02:15:38.351Z,31.42
2019-04-16T02:16:02.995Z,31.31
2019-04-16T02:16:27.605Z,31.30
2019-04-16T02:16:55.771Z,31.25
2019-04-16T02:17:18.801Z,31.54
2019-04-16T02:17:43.429Z,31.43
2019-04-16T02:18:08.223Z,31.41
2019-04-16T02:18:32.883Z,31.29
2019-04-16T02:19:00.799Z,31.27
2019-04-16T02:19:23.906Z,31.30
2019-04-16T02:19:48.526Z,31.29
2019-04-16T02:20:13.135Z,31.32
2019-04-16T02:20:39.305Z,31.20
2019-04-16T02:21:04.106Z,31.37
2019-04-16T02:21:28.751Z,31.43
2019-04-16T02:21:53.362Z,31.39
2019-04-16T02:22:17.997Z,31.50
2019-04-16T02:22:45.058Z,31.38
2019-04-16T02:23:09.013Z,31.46
2019-04-16T02:23:33.702Z,31.43
2019-04-16T02:23:58.310Z,31.48
2019-04-16T02:24:22.951Z,31.38
2019-04-16T02:24:48.572Z,31.48
2019-04-16T02:25:13.269Z,31.39
2019-04-16T02:25:37.923Z,31.24
2019-04-16T02:26:02.553Z,31.32
2019-04-16T02:26:27.349Z,31.45
2019-04-16T02:26:54.855Z,31.52
2019-04-16T02:27:19.387Z,31.26
2019-04-16T02:27:44.004Z,31.47
2019-04-16T02:28:08.643Z,31.50
2019-04-16T02:28:33.285Z,31.54
2019-04-16T02:28:58.960Z,31.35
2019-04-16T02:29:24.211Z,31.35
2019-04-16T02:29:48.834Z,31.44
2019-04-16T02:30:13.446Z,31.42
2019-04-16T02:30:39.677Z,31.41
2019-04-16T02:31:04.637Z,31.40
2019-04-16T02:31:29.399Z,31.53
2019-04-16T02:31:54.009Z,31.43
2019-04-16T02:32:18.643Z,31.56
2019-04-16T02:32:43.269Z,31.51
2019-04-16T02:33:07.919Z,31.51
2019-04-16T02:33:32.621Z,31.59
2019-04-16T02:33:57.262Z,31.52
2019-04-16T02:34:21.934Z,31.59
2019-04-16T02:34:46.607Z,31.57
2019-04-16T02:35:11.231Z,31.57
2019-04-16T02:35:35.851Z,31.38
2019-04-16T02:36:00.616Z,31.60
2019-04-16T02:36:25.365Z,31.50
2019-04-16T02:36:50.063Z,31.56
2019-04-16T02:37:14.683Z,31.60
2019-04-16T02:37:39.308Z,31.61
2019-04-16T02:38:10.841Z,31.52
2019-04-16T02:38:30.355Z,31.52
2019-04-16T02:38:54.974Z,31.57
2019-04-16T02:39:25.516Z,31.56
2019-04-16T02:39:48.766Z,31.53
2019-04-16T02:40:18.330Z,31.39
2019-04-16T02:40:39.596Z,31.56
2019-04-16T02:41:04.227Z,31.65
2019-04-16T02:41:28.877Z,31.60
2019-04-16T02:41:58.103Z,31.45
2019-04-16T02:42:19.845Z,31.54
2019-04-16T02:42:44.485Z,31.49
2019-04-16T02:43:09.123Z,31.56
2019-04-16T02:43:39.785Z,31.49
2019-04-16T02:44:00.091Z,31.63
2019-04-16T02:44:24.748Z,31.55
2019-04-16T02:44:50.399Z,31.45
2019-04-16T02:45:15.211Z,31.60
2019-04-16T02:45:39.846Z,31.69
2019-04-16T02:46:04.493Z,31.48
2019-04-16T02:46:32.347Z,31.44
2019-04-16T02:46:55.456Z,31.57
2019-04-16T02:47:20.092Z,31.61
2019-04-16T02:47:45.383Z,31.54
2019-04-16T02:48:15.256Z,31.53
2019-04-16T02:48:36.999Z,31.65
2019-04-16T02:49:02.259Z,31.48
2019-04-16T02:49:26.953Z,31.58
2019-04-16T02:49:56.365Z,31.48
2019-04-16T02:50:22.208Z,31.54
2019-04-16T02:50:48.515Z,31.49
2019-04-16T02:51:17.488Z,31.57
2019-04-16T02:51:43.771Z,31.68
2019-04-16T02:52:14.994Z,31.58
2019-04-16T02:52:37.969Z,31.48
2019-04-16T02:53:04.239Z,31.64
2019-04-16T02:53:42.827Z,31.51
2019-04-16T02:54:35.357Z,31.67
2019-04-16T02:55:09.526Z,31.61
2019-04-16T02:55:32.494Z,31.60
2019-04-16T02:56:07.589Z,31.61
2019-04-16T02:56:52.028Z,31.69
2019-04-16T02:57:25.794Z,31.67
2019-04-16T02:57:48.884Z,31.53
2019-04-16T02:58:15.230Z,31.69
2019-04-16T02:58:41.500Z,31.78
2019-04-16T02:59:11.936Z,31.78
2019-04-16T02:59:35.742Z,31.78
2019-04-16T03:00:01.805Z,31.76
2019-04-16T03:00:49.147Z,31.74
2019-04-16T03:01:20.396Z,31.71
2019-04-16T03:01:51.893Z,31.77
2019-04-16T03:02:29.846Z,31.81
2019-04-16T03:02:59.103Z,31.79
2019-04-16T03:03:37.088Z,31.57
2019-04-16T03:04:09.542Z,31.72
2019-04-16T03:04:45.185Z,31.78
2019-04-16T03:05:26.553Z,31.87
2019-04-16T03:05:53.229Z,31.96
2019-04-16T03:06:17.883Z,31.77
2019-04-16T03:06:42.499Z,31.77
2019-04-16T03:07:07.133Z,31.84
2019-04-16T03:07:32.806Z,31.80
2019-04-16T03:07:58.072Z,31.99
2019-04-16T03:08:22.749Z,31.84
2019-04-16T03:08:47.395Z,31.85
2019-04-16T03:09:12.090Z,31.92
2019-04-16T03:09:39.792Z,31.97
2019-04-16T03:10:03.404Z,31.91
2019-04-16T03:10:28.043Z,31.78
2019-04-16T03:10:52.716Z,31.96
2019-04-16T03:11:18.143Z,31.92
2019-04-16T03:11:45.622Z,31.91
2019-04-16T03:12:09.158Z,31.92
2019-04-16T03:12:33.756Z,31.93
2019-04-16T03:12:58.398Z,31.87
2019-04-16T03:13:23.966Z,31.82
2019-04-16T03:13:48.702Z,31.81
2019-04-16T03:14:13.464Z,31.89
2019-04-16T03:14:38.099Z,31.74
2019-04-16T03:15:02.885Z,31.82
2019-04-16T03:15:34.717Z,31.87
2019-04-16T03:16:07.631Z,31.89
2019-04-16T03:16:38.006Z,31.86
2019-04-16T03:17:21.498Z,31.83
2019-04-16T03:17:46.594Z,31.75
2019-04-16T03:18:15.012Z,31.79
2019-04-16T03:18:40.347Z,31.77
2019-04-16T03:19:06.592Z,31.92
2019-04-16T03:19:38.796Z,31.86
2019-04-16T03:20:03.716Z,31.75
2019-04-16T03:20:28.324Z,31.87
2019-04-16T03:20:55.808Z,31.95
2019-04-16T03:21:19.306Z,31.68
2019-04-16T03:21:44.032Z,31.79
2019-04-16T03:22:08.800Z,31.83
2019-04-16T03:22:34.453Z,31.58
2019-04-16T03:22:59.272Z,31.72
2019-04-16T03:23:23.879Z,31.77
2019-04-16T03:23:48.507Z,31.63
2019-04-16T03:24:13.337Z,31.83
2019-04-16T03:24:40.237Z,31.82
2019-04-16T03:25:06.316Z,31.88
2019-04-16T03:25:30.954Z,31.86
2019-04-16T03:25:55.944Z,31.88
2019-04-16T03:26:20.610Z,31.79
2019-04-16T03:26:47.592Z,31.91
2019-04-16T03:27:11.571Z,31.70
2019-04-16T03:27:36.209Z,31.83
2019-04-16T03:28:00.813Z,32.04
2019-04-16T03:28:27.408Z,32.00
2019-04-16T03:28:51.770Z,31.86
2019-04-16T03:29:16.400Z,31.87
2019-04-16T03:29:41.096Z,31.76
2019-04-16T03:30:06.402Z,31.74
2019-04-16T03:30:40.359Z,31.84
2019-04-16T03:30:57.459Z,31.75
2019-04-16T03:31:23.453Z,31.84
2019-04-16T03:31:48.501Z,31.83
2019-04-16T03:32:15.009Z,31.85
2019-04-16T03:32:50.008Z,31.64
2019-04-16T03:33:15.710Z,31.89
2019-04-16T03:33:48.313Z,31.52
2019-04-16T03:34:07.077Z,31.91
2019-04-16T03:34:31.690Z,31.83
2019-04-16T03:34:56.344Z,31.90
2019-04-16T03:35:25.403Z,31.73
2019-04-16T03:35:47.401Z,31.60
2019-04-16T03:36:12.014Z,31.82
2019-04-16T03:36:36.660Z,31.89
2019-04-16T03:37:01.913Z,31.89
2019-04-16T03:37:30.238Z,31.87
2019-04-16T03:37:54.012Z,31.85
2019-04-16T03:38:18.647Z,31.80
2019-04-16T03:38:43.291Z,32.03
2019-04-16T03:39:12.234Z,31.89
2019-04-16T03:39:34.227Z,32.06
2019-04-16T03:39:58.855Z,31.94
2019-04-16T03:40:25.459Z,32.00
2019-04-16T03:40:49.903Z,31.98
2019-04-16T03:41:14.562Z,31.88
2019-04-16T03:41:39.260Z,31.86
2019-04-16T03:42:03.872Z,31.98
2019-04-16T03:42:28.512Z,31.71
2019-04-16T03:42:53.136Z,31.88
2019-04-16T03:43:17.982Z,31.77
2019-04-16T03:43:42.609Z,32.01
2019-04-16T03:44:07.228Z,32.01
2019-04-16T03:44:33.554Z,31.98
2019-04-16T03:44:58.203Z,31.97
2019-04-16T03:45:22.933Z,31.82
2019-04-16T03:45:47.676Z,32.01
2019-04-16T03:46:14.165Z,31.90
2019-04-16T03:46:40.152Z,31.93
2019-04-16T03:47:05.001Z,32.02
2019-04-16T03:47:29.608Z,31.95
2019-04-16T03:47:54.281Z,31.93
2019-04-16T03:48:20.689Z,31.98
2019-04-16T03:48:45.720Z,31.76
2019-04-16T03:49:10.337Z,32.02
2019-04-16T03:49:34.980Z,31.89
2019-04-16T03:50:00.239Z,31.86
2019-04-16T03:50:25.040Z,32.13
2019-04-16T03:50:49.660Z,31.99
2019-04-16T03:51:14.275Z,32.00
2019-04-16T03:51:39.280Z,31.86
2019-04-16T03:52:04.934Z,31.95
2019-04-16T03:52:30.455Z,31.83
2019-04-16T03:52:55.226Z,31.76
2019-04-16T03:53:19.852Z,31.88
2019-04-16T03:53:46.521Z,32.04
2019-04-16T03:54:11.151Z,31.93
2019-04-16T03:54:35.755Z,31.99
2019-04-16T03:55:00.382Z,31.94
2019-04-16T03:55:26.266Z,31.93
2019-04-16T03:55:51.148Z,31.80
2019-04-16T03:56:15.768Z,32.01
2019-04-16T03:56:40.454Z,32.02
2019-04-16T03:57:05.146Z,32.07
2019-04-16T03:57:32.698Z,32.00
2019-04-16T03:57:56.136Z,31.86
2019-04-16T03:58:20.764Z,31.92
2019-04-16T03:58:45.370Z,31.94
2019-04-16T03:59:11.822Z,32.02
2019-04-16T03:59:36.360Z,32.00
2019-04-16T04:00:01.070Z,31.92
2019-04-16T04:00:25.772Z,32.01
2019-04-16T04:00:50.409Z,32.01
2019-04-16T04:01:15.442Z,31.86
2019-04-16T04:01:40.465Z,31.91
2019-04-16T04:02:05.150Z,31.99
2019-04-16T04:02:29.807Z,32.02
2019-04-16T04:02:55.335Z,32.04
2019-04-16T04:03:59.982Z,31.91
2019-04-16T04:04:28.991Z,31.65
2019-04-16T04:04:50.953Z,31.83
2019-04-16T04:05:15.607Z,31.80
2019-04-16T04:05:40.243Z,31.98
2019-04-16T04:06:06.835Z,32.04
2019-04-16T04:06:31.176Z,32.02
2019-04-16T04:06:55.835Z,31.85
2019-04-16T04:07:20.474Z,32.08
2019-04-16T04:07:45.180Z,32.09
2019-04-16T04:08:09.785Z,32.07
2019-04-16T04:08:34.458Z,32.05
2019-04-16T04:08:59.041Z,32.02
2019-04-16T04:09:23.710Z,31.90
2019-04-16T04:09:48.319Z,31.88
2019-04-16T04:10:13.641Z,32.02
2019-04-16T04:10:38.246Z,32.13
2019-04-16T04:11:02.974Z,32.03
2019-04-16T04:11:27.597Z,32.13
2019-04-16T04:11:52.217Z,32.07
2019-04-16T04:12:16.982Z,31.91
2019-04-16T04:12:46.805Z,31.98
2019-04-16T04:13:11.498Z,31.90
2019-04-16T04:13:36.101Z,31.70
2019-04-16T04:14:00.749Z,32.05
2019-04-16T04:14:25.493Z,32.06
2019-04-16T04:14:51.249Z,31.88
2019-04-16T04:15:16.608Z,31.93
2019-04-16T04:15:41.233Z,32.06
2019-04-16T04:16:06.055Z,32.10
2019-04-16T04:16:33.533Z,31.85
2019-04-16T04:16:57.203Z,31.92
2019-04-16T04:17:21.881Z,31.89
2019-04-16T04:17:46.495Z,31.90
2019-04-16T04:18:12.647Z,32.09
2019-04-16T04:18:37.529Z,31.89
2019-04-16T04:19:02.221Z,31.88
2019-04-16T04:19:26.849Z,32.08
2019-04-16T04:19:51.559Z,31.96
2019-04-16T04:20:18.112Z,31.88
2019-04-16T04:20:42.522Z,31.78
2019-04-16T04:21:07.177Z,31.96
2019-04-16T04:21:31.867Z,32.09
2019-04-16T04:21:56.489Z,31.90
2019-04-16T04:22:25.307Z,32.05
2019-04-16T04:22:47.486Z,31.86
2019-04-16T04:23:12.303Z,31.85
2019-04-16T04:23:36.908Z,31.71
2019-04-16T04:24:01.540Z,32.01
2019-04-16T04:24:28.482Z,31.88
2019-04-16T04:24:52.486Z,31.86
2019-04-16T04:25:17.096Z,32.12
2019-04-16T04:25:41.759Z,32.09
2019-04-16T04:26:08.853Z,31.91
2019-04-16T04:26:32.665Z,32.00
2019-04-16T04:26:57.275Z,31.94
2019-04-16T04:27:21.907Z,31.99
2019-04-16T04:27:47.622Z,32.11
2019-04-16T04:28:18.522Z,31.99
2019-04-16T04:28:39.975Z,31.96
2019-04-16T04:29:06.154Z,31.78
2019-04-16T04:29:31.141Z,31.88
2019-04-16T04:29:56.540Z,32.08
2019-04-16T04:30:25.595Z,32.06
2019-04-16T04:30:49.937Z,32.09
2019-04-16T04:31:14.548Z,32.02
2019-04-16T04:31:39.178Z,32.05
2019-04-16T04:32:04.318Z,31.35
2019-04-16T04:32:29.015Z,31.97
2019-04-16T04:32:53.646Z,31.77
2019-04-16T04:33:41.374Z,31.83
2019-04-16T04:34:04.192Z,31.84
2019-04-16T04:34:28.810Z,31.81
2019-04-16T04:34:53.421Z,31.73
2019-04-16T04:35:21.962Z,31.97
2019-04-16T04:35:44.450Z,31.97
2019-04-16T04:36:10.218Z,31.83
2019-04-16T04:36:34.937Z,31.97
2019-04-16T04:37:00.072Z,31.80
2019-04-16T04:37:24.885Z,31.60
2019-04-16T04:37:49.501Z,31.81
2019-04-16T04:38:14.158Z,31.99
2019-04-16T04:38:38.935Z,31.77
2019-04-16T04:39:09.028Z,31.73
2019-04-16T04:39:31.788Z,31.69
2019-04-16T04:39:56.407Z,31.75
2019-04-16T04:40:21.077Z,31.80
2019-04-16T04:40:50.480Z,31.66
2019-04-16T04:41:12.050Z,31.58
2019-04-16T04:41:36.647Z,31.57
2019-04-16T04:42:01.262Z,31.49
2019-04-16T04:42:28.332Z,31.56
2019-04-16T04:42:52.243Z,31.65
2019-04-16T04:43:16.954Z,31.40
2019-04-16T04:43:41.699Z,31.43
2019-04-16T04:44:06.383Z,31.54
2019-04-16T04:44:33.618Z,31.44
2019-04-16T04:44:57.459Z,31.54
2019-04-16T04:45:22.177Z,31.43
2019-04-16T04:45:46.787Z,31.30
2019-04-16T04:46:14.504Z,31.32
2019-04-16T04:46:37.751Z,31.25
2019-04-16T04:47:02.393Z,31.33
2019-04-16T04:47:27.024Z,31.20
2019-04-16T04:47:52.364Z,31.40
2019-04-16T04:48:17.296Z,31.33
2019-04-16T04:48:41.943Z,31.24
2019-04-16T04:49:06.590Z,31.19
2019-04-16T04:49:31.226Z,31.31
2019-04-16T04:49:55.913Z,31.33
2019-04-16T04:50:20.697Z,31.17
2019-04-16T04:50:45.359Z,31.17
2019-04-16T04:51:10.115Z,31.28
2019-04-16T04:51:36.854Z,31.28
2019-04-16T04:52:01.251Z,31.19
2019-04-16T04:52:27.380Z,31.21
2019-04-16T04:52:52.067Z,31.08
2019-04-16T04:53:19.176Z,31.25
2019-04-16T04:53:43.035Z,31.19
2019-04-16T04:54:07.643Z,31.13
2019-04-16T04:54:32.264Z,31.01
2019-04-16T04:54:56.900Z,31.21
2019-04-16T04:55:23.427Z,31.18
2019-04-16T04:55:48.031Z,30.95
2019-04-16T04:56:13.707Z,31.06
2019-04-16T04:56:38.381Z,31.02
2019-04-16T04:57:03.031Z,30.92
2019-04-16T04:57:28.380Z,30.98
2019-04-16T04:57:53.989Z,30.84
2019-04-16T04:58:18.691Z,30.87
2019-04-16T04:58:43.389Z,30.74
2019-04-16T04:59:08.003Z,30.67
2019-04-16T04:59:36.502Z,30.78
2019-04-16T04:59:58.957Z,30.62
2019-04-16T05:00:23.571Z,31.00
2019-04-16T05:00:48.208Z,30.94
2019-04-16T05:01:14.222Z,30.80
2019-04-16T05:01:42.093Z,30.85
2019-04-16T05:02:05.369Z,30.77
2019-04-16T05:02:29.963Z,30.65
2019-04-16T05:02:54.589Z,30.57
2019-04-16T05:03:39.260Z,30.77
2019-04-16T05:04:19.269Z,30.74
2019-04-16T05:04:45.767Z,30.62
2019-04-16T05:05:14.774Z,30.59
2019-04-16T05:05:47.189Z,30.69
2019-04-16T05:06:14.509Z,30.83
2019-04-16T05:06:43.512Z,30.87
2019-04-16T05:07:10.026Z,30.81
2019-04-16T05:07:34.697Z,31.04
2019-04-16T05:07:59.989Z,30.77
2019-04-16T05:08:25.415Z,30.81
2019-04-16T05:08:50.059Z,30.85
2019-04-16T05:09:14.689Z,30.83
2019-04-16T05:09:39.370Z,30.74
2019-04-16T05:10:07.548Z,30.66
2019-04-16T05:10:32.536Z,30.73
2019-04-16T05:10:59.831Z,30.70
2019-04-16T05:11:23.547Z,30.51
2019-04-16T05:11:49.483Z,30.63
2019-04-16T05:12:14.305Z,30.60
2019-04-16T05:12:38.932Z,30.75
2019-04-16T05:13:03.570Z,30.46
2019-04-16T05:13:28.201Z,30.44
2019-04-16T05:13:53.517Z,30.06
2019-04-16T05:14:19.190Z,30.26
2019-04-16T05:14:57.512Z,30.30
2019-04-16T05:15:20.145Z,30.07
2019-04-16T05:15:44.842Z,30.17
2019-04-16T05:16:09.455Z,30.02
2019-04-16T05:16:35.025Z,30.03
2019-04-16T05:17:00.112Z,29.99
2019-04-16T05:17:26.395Z,30.44
2019-04-16T05:17:51.073Z,30.52
2019-04-16T05:18:15.801Z,30.27
2019-04-16T05:18:41.744Z,30.54
2019-04-16T05:19:06.711Z,30.29
2019-04-16T05:19:31.337Z,30.33
2019-04-16T05:19:55.982Z,30.42
2019-04-16T05:20:20.594Z,30.31
2019-04-16T05:20:46.979Z,30.59
2019-04-16T05:21:11.804Z,30.93
2019-04-16T05:21:36.548Z,30.75
2019-04-16T05:22:01.193Z,30.75
2019-04-16T05:22:25.822Z,30.62
2019-04-16T05:22:53.062Z,30.63
2019-04-16T05:23:16.844Z,30.62
2019-04-16T05:23:41.489Z,30.53
2019-04-16T05:24:06.098Z,30.59
2019-04-16T05:24:30.740Z,30.51
2019-04-16T05:25:00.894Z,30.80
2019-04-16T05:25:21.735Z,30.86
2019-04-16T05:25:46.391Z,30.78
2019-04-16T05:26:11.001Z,31.10
2019-04-16T05:26:36.575Z,30.97
2019-04-16T05:27:01.936Z,30.82
2019-04-16T05:27:29.200Z,30.94
2019-04-16T05:27:53.071Z,30.95
2019-04-16T05:28:17.710Z,30.94
2019-04-16T05:28:45.530Z,31.22
2019-04-16T05:29:16.284Z,31.22
2019-04-16T05:29:38.292Z,30.87
2019-04-16T05:30:03.093Z,30.86
2019-04-16T05:30:27.705Z,30.77
2019-04-16T05:30:53.084Z,30.94
2019-04-16T05:31:17.862Z,31.39
2019-04-16T05:31:42.754Z,30.94
2019-04-16T05:32:07.381Z,30.92
2019-04-16T05:32:33.918Z,30.77
2019-04-16T05:32:58.319Z,31.01
2019-04-16T05:33:22.966Z,30.90
2019-04-16T05:33:47.604Z,30.69
2019-04-16T05:34:12.918Z,31.03
2019-04-16T05:34:38.475Z,31.04
2019-04-16T05:35:09.192Z,31.18
2019-04-16T05:35:30.431Z,31.03
2019-04-16T05:35:55.082Z,31.13
2019-04-16T05:36:21.568Z,31.16